Time;durP1;ratioP1;P1;durP2;ratioP2;P2;SDS_P1;SDS_P2;PMS_P1;PMS_P2;Temp;Humidity;BMP_temperature;BMP_pressure;BME280_temperature;BME280_humidity;BME280_pressure;Samples;Min_cycle;Max_cycle;Signal;HPM_P1;HPM_P2
2023/12/02 00:00:27;;;;;;;35.53;16.02;;;-0.80;99.90;;;;;;5034501;28;20076;-75
2023/12/02 00:02:53;;;;;;;33.60;17.50;;;-0.80;99.90;;;;;;5090446;28;20881;-76
2023/12/02 00:05:19;;;;;;;37.15;18.08;;;-1.00;99.90;;;;;;5052064;28;20036;-77
2023/12/02 00:07:45;;;;;;;31.83;16.40;;;0.00;99.90;;;;;;5069941;28;20041;-76
2023/12/02 00:10:11;;;;;;;32.00;17.20;;;-0.80;99.90;;;;;;5055480;28;20044;-75
2023/12/02 00:12:37;;;;;;;31.55;17.83;;;-1.60;99.90;;;;;;5038782;28;20581;-75
2023/12/02 00:15:04;;;;;;;31.42;16.38;;;-0.80;99.90;;;;;;5043027;28;20086;-76
2023/12/02 00:17:30;;;;;;;41.10;18.52;;;-0.80;99.90;;;;;;5043632;28;20051;-76
2023/12/02 00:19:56;;;;;;;31.35;17.45;;;-0.80;99.90;;;;;;5075191;28;20053;-75
2023/12/02 00:22:21;;;;;;;35.05;17.98;;;-0.80;99.90;;;;;;5043054;28;20090;-75
2023/12/02 00:24:47;;;;;;;33.65;17.70;;;-0.80;99.90;;;;;;5074872;28;20040;-77
2023/12/02 00:27:13;;;;;;;31.50;17.40;;;-0.90;99.90;;;;;;5040046;28;20509;-75
2023/12/02 00:29:39;;;;;;;34.00;17.73;;;-0.80;99.90;;;;;;5034360;28;20048;-75
2023/12/02 00:32:04;;;;;;;31.38;18.35;;;-0.80;99.90;;;;;;5062396;28;20110;-75
2023/12/02 00:34:30;;;;;;;33.75;17.48;;;-0.80;99.90;;;;;;5073880;28;20507;-76
2023/12/02 00:36:56;;;;;;;33.53;18.50;;;-0.80;99.90;;;;;;5068937;28;20050;-75
2023/12/02 00:39:22;;;;;;;35.47;18.98;;;-0.80;99.90;;;;;;5074673;28;20170;-76
2023/12/02 00:41:47;;;;;;;36.88;17.20;;;-0.80;99.90;;;;;;5073837;28;20513;-76
2023/12/02 00:44:13;;;;;;;35.10;18.90;;;-0.70;99.90;;;;;;5089013;28;21430;-76
2023/12/02 00:46:40;;;;;;;40.28;20.13;;;-0.70;99.90;;;;;;5086914;28;20047;-76
2023/12/02 00:49:06;;;;;;;40.78;19.50;;;-0.70;99.90;;;;;;5057446;28;20072;-76
2023/12/02 00:51:32;;;;;;;41.67;23.20;;;-0.70;99.90;;;;;;5039044;28;20067;-76
2023/12/02 00:53:58;;;;;;;39.50;20.30;;;-0.70;99.90;;;;;;5083033;28;20045;-76
2023/12/02 00:56:27;;;;;;;35.85;20.67;;;-0.80;99.90;;;;;;5074294;28;20059;-77
2023/12/02 00:58:53;;;;;;;;;;;-0.80;99.90;;;;;;5055878;28;20048;-75
2023/12/02 01:01:18;;;;;;;37.30;19.77;;;-0.80;99.90;;;;;;5069283;28;20289;-76
2023/12/02 01:03:44;;;;;;;39.28;19.92;;;-0.80;99.90;;;;;;5064867;28;20072;-75
2023/12/02 01:06:10;;;;;;;34.83;19.40;;;-0.80;99.90;;;;;;5058458;28;20049;-76
2023/12/02 01:08:44;;;;;;;35.75;18.45;;;-0.70;99.90;;;;;;5074061;28;20055;-76
2023/12/02 01:11:10;;;;;;;36.38;18.85;;;-0.80;99.90;;;;;;5055355;28;20052;-76
2023/12/02 01:13:36;;;;;;;37.28;19.05;;;-0.80;99.90;;;;;;5039480;28;20482;-76
2023/12/02 01:16:01;;;;;;;40.55;21.83;;;-0.70;99.90;;;;;;5087694;28;20117;-75
2023/12/02 01:18:27;;;;;;;35.38;19.10;;;-0.70;99.90;;;;;;5058962;28;20056;-74
2023/12/02 01:20:53;;;;;;;37.00;18.65;;;-0.70;99.90;;;;;;5095651;28;20547;-76
2023/12/02 01:23:20;;;;;;;41.10;20.20;;;-0.70;99.90;;;;;;5063079;28;20067;-74
2023/12/02 01:25:45;;;;;;;36.15;20.08;;;-0.70;99.90;;;;;;5071053;28;20127;-76
2023/12/02 01:28:11;;;;;;;36.00;18.17;;;-0.70;99.90;;;;;;5056525;28;20076;-76
2023/12/02 01:30:37;;;;;;;36.70;17.60;;;0.50;99.90;;;;;;5082604;28;20047;-75
2023/12/02 01:33:02;;;;;;;42.13;20.17;;;-0.70;99.90;;;;;;5094089;28;20040;-76
2023/12/02 01:35:28;;;;;;;40.15;19.77;;;-0.70;99.90;;;;;;5072372;28;20044;-74
2023/12/02 01:37:54;;;;;;;36.00;19.48;;;-0.70;99.90;;;;;;5062617;28;20609;-75
2023/12/02 01:40:20;;;;;;;35.55;19.10;;;-0.70;99.90;;;;;;5075867;28;20037;-75
2023/12/02 01:42:46;;;;;;;45.78;20.90;;;-0.70;99.90;;;;;;5074467;28;20356;-76
2023/12/02 01:45:14;;;;;;;39.90;20.67;;;-0.70;99.90;;;;;;5058586;28;20129;-76
2023/12/02 01:47:43;;;;;;;36.53;19.40;;;-0.70;99.90;;;;;;5068677;28;20078;-77
2023/12/02 01:50:10;;;;;;;41.88;21.02;;;-0.70;99.90;;;;;;5076012;28;20040;-76
2023/12/02 01:52:36;;;;;;;42.72;20.65;;;-0.30;99.90;;;;;;5075912;28;20052;-77
2023/12/02 01:55:02;;;;;;;37.42;20.27;;;-0.70;99.90;;;;;;5077964;28;20367;-76
2023/12/02 01:57:32;;;;;;;34.08;18.65;;;-0.70;99.90;;;;;;5063149;28;20134;-75
2023/12/02 01:59:57;;;;;;;35.75;19.00;;;-0.70;99.90;;;;;;5061545;28;20045;-77
2023/12/02 02:02:25;;;;;;;42.72;21.83;;;-0.70;99.90;;;;;;5094612;28;20206;-76
2023/12/02 02:04:51;;;;;;;43.20;21.87;;;-0.70;99.90;;;;;;5032540;28;20083;-76
2023/12/02 02:07:17;;;;;;;47.45;21.92;;;-0.70;99.90;;;;;;5069923;28;20037;-76
2023/12/02 02:09:48;;;;;;;47.90;23.77;;;-0.70;99.90;;;;;;5033996;28;20075;-76
2023/12/02 02:12:14;;;;;;;52.78;25.80;;;-0.80;99.90;;;;;;5068966;28;20119;-77
2023/12/02 02:14:41;;;;;;;56.90;26.65;;;-0.80;99.90;;;;;;5070826;28;20048;-76
2023/12/02 02:17:06;;;;;;;51.95;26.05;;;-0.70;99.90;;;;;;5054609;28;20372;-75
2023/12/02 02:19:35;;;;;;;54.13;25.98;;;-0.80;99.90;;;;;;5062349;28;20041;-75
2023/12/02 02:22:01;;;;;;;52.45;25.35;;;-0.80;99.90;;;;;;5061220;28;20510;-76
2023/12/02 02:24:27;;;;;;;44.72;24.38;;;-0.90;99.90;;;;;;5060331;28;20045;-75
2023/12/02 02:26:52;;;;;;;52.20;25.02;;;-0.90;99.90;;;;;;5095945;28;20075;-75
2023/12/02 02:29:18;;;;;;;47.17;23.35;;;-0.90;99.90;;;;;;5095998;28;20049;-76
2023/12/02 02:31:44;;;;;;;44.03;23.33;;;-0.90;99.90;;;;;;5061286;28;20049;-76
2023/12/02 02:34:09;;;;;;;50.38;24.13;;;-0.90;99.90;;;;;;5081143;28;20067;-75
2023/12/02 02:36:35;;;;;;;44.83;22.33;;;-0.40;99.90;;;;;;5078005;28;20040;-76
2023/12/02 02:39:01;;;;;;;43.58;23.65;;;-0.90;99.90;;;;;;5056305;28;20441;-75
2023/12/02 02:41:27;;;;;;;45.97;23.20;;;0.20;99.90;;;;;;5094921;28;20045;-74
2023/12/02 02:43:53;;;;;;;48.08;22.58;;;-0.90;99.90;;;;;;5045171;28;20039;-75
2023/12/02 02:46:19;;;;;;;49.25;23.92;;;-0.90;99.90;;;;;;5057935;28;20454;-76
2023/12/02 02:48:45;;;;;;;43.38;21.48;;;-0.90;99.90;;;;;;5035604;28;20040;-75
2023/12/02 02:51:11;;;;;;;43.63;22.40;;;-0.90;99.90;;;;;;5074633;28;20067;-75
2023/12/02 02:53:36;;;;;;;44.90;22.80;;;0.00;99.90;;;;;;5094608;28;20028;-76
2023/12/02 02:56:02;;;;;;;46.53;22.80;;;-0.90;99.90;;;;;;5046248;28;20483;-75
2023/12/02 02:58:29;;;;;;;45.05;22.40;;;-0.90;99.90;;;;;;5053609;28;20044;-76
2023/12/02 03:00:54;;;;;;;47.75;22.73;;;-0.90;99.90;;;;;;5072516;28;20047;-76
2023/12/02 03:03:20;;;;;;;44.28;21.95;;;-0.90;99.90;;;;;;5071233;28;20079;-76
2023/12/02 03:05:46;;;;;;;41.25;21.65;;;-0.60;99.90;;;;;;5043287;28;20412;-75
2023/12/02 03:08:12;;;;;;;46.78;21.73;;;-1.00;99.90;;;;;;5069647;28;20025;-76
2023/12/02 03:10:38;;;;;;;41.85;21.90;;;-0.90;99.90;;;;;;5080550;28;20044;-75
2023/12/02 03:13:03;;;;;;;44.35;23.25;;;-0.90;99.90;;;;;;5076784;28;20104;-76
2023/12/02 03:15:29;;;;;;;41.38;21.08;;;-0.90;99.90;;;;;;5047050;28;20036;-75
2023/12/02 03:18:00;;;;;;;42.70;21.27;;;-0.90;99.90;;;;;;5052037;28;20048;-76
2023/12/02 03:20:26;;;;;;;43.10;20.77;;;-0.50;99.90;;;;;;5050566;28;20052;-77
2023/12/02 03:22:52;;;;;;;38.85;20.75;;;-0.90;99.90;;;;;;5070027;28;20041;-77
2023/12/02 03:25:17;;;;;;;38.08;19.63;;;-0.90;99.90;;;;;;5097930;28;20036;-76
2023/12/02 03:27:43;;;;;;;41.40;21.42;;;-0.90;99.90;;;;;;5100395;28;20383;-76
2023/12/02 03:30:09;;;;;;;40.42;21.20;;;0.20;99.90;;;;;;5070357;28;20044;-76
2023/12/02 03:32:38;;;;;;;43.17;20.08;;;0.10;99.90;;;;;;5050971;28;20040;-76
2023/12/02 03:35:06;;;;;;;36.60;19.38;;;-0.90;99.90;;;;;;5078150;28;20052;-76
2023/12/02 03:37:32;;;;;;;35.85;19.40;;;-0.90;99.90;;;;;;5082831;28;20037;-75
2023/12/02 03:39:58;;;;;;;35.22;18.83;;;-0.90;99.90;;;;;;5099969;28;20437;-77
2023/12/02 03:42:24;;;;;;;36.67;19.83;;;-0.90;99.90;;;;;;5074816;28;20032;-76
2023/12/02 03:44:52;;;;;;;42.47;19.52;;;-0.90;99.90;;;;;;5058097;28;20461;-76
2023/12/02 03:47:17;;;;;;;38.58;20.58;;;-0.90;99.90;;;;;;5057140;28;20064;-76
2023/12/02 03:49:46;;;;;;;42.45;21.27;;;-0.60;99.90;;;;;;5065825;28;20051;-76
2023/12/02 03:52:12;;;;;;;39.55;20.73;;;-0.90;99.90;;;;;;5077060;28;20051;-76
2023/12/02 03:54:38;;;;;;;41.83;20.75;;;-0.90;99.90;;;;;;5067757;28;20036;-76
2023/12/02 03:57:04;;;;;;;42.40;21.75;;;-0.90;99.90;;;;;;5079979;28;20051;-76
2023/12/02 03:59:29;;;;;;;39.55;20.95;;;-0.90;99.90;;;;;;5076726;28;20062;-76
2023/12/02 04:01:56;;;;;;;43.28;21.80;;;-0.90;99.90;;;;;;5073861;28;20114;-76
2023/12/02 04:04:22;;;;;;;39.35;21.58;;;-0.90;99.90;;;;;;5078070;28;20418;-75
2023/12/02 04:06:48;;;;;;;46.67;22.77;;;-1.00;99.90;;;;;;5042676;28;20503;-76
2023/12/02 04:09:16;;;;;;;44.28;22.60;;;-1.00;99.90;;;;;;5078775;28;20422;-76
2023/12/02 04:11:48;;;;;;;41.95;21.58;;;-0.20;99.90;;;;;;5063504;28;20043;-76
2023/12/02 04:14:14;;;;;;;47.15;23.63;;;-0.70;99.90;;;;;;5081592;28;20040;-75
2023/12/02 04:16:41;;;;;;;40.42;20.83;;;-1.00;99.90;;;;;;5063954;28;20049;-76
2023/12/02 04:19:07;;;;;;;42.28;22.58;;;-0.50;99.90;;;;;;5061609;28;20127;-76
2023/12/02 04:21:40;;;;;;;44.10;22.55;;;-1.00;99.90;;;;;;5064587;28;20059;-76
2023/12/02 04:24:06;;;;;;;43.95;22.63;;;-1.10;99.90;;;;;;5065195;28;20040;-76
2023/12/02 04:26:33;;;;;;;43.88;22.70;;;-1.00;99.90;;;;;;5064791;28;20466;-77
2023/12/02 04:28:58;;;;;;;44.83;22.83;;;-1.00;99.90;;;;;;5043442;28;20041;-76
2023/12/02 04:31:24;;;;;;;43.97;22.77;;;-1.00;99.90;;;;;;5081682;28;20040;-76
2023/12/02 04:33:49;;;;;;;44.92;23.25;;;-1.00;99.90;;;;;;5082953;28;20032;-75
2023/12/02 04:36:15;;;;;;;45.00;24.48;;;-1.10;99.90;;;;;;5080765;28;20044;-76
2023/12/02 04:38:41;;;;;;;48.53;25.15;;;-1.00;99.90;;;;;;5044071;28;20112;-75
2023/12/02 04:41:09;;;;;;;44.80;23.00;;;-0.40;99.90;;;;;;5063455;28;20071;-76
2023/12/02 04:43:34;;;;;;;45.67;22.73;;;-1.10;99.90;;;;;;5050805;28;20115;-77
2023/12/02 04:46:00;;;;;;;43.80;23.42;;;-1.00;99.90;;;;;;5066509;28;20099;-75
2023/12/02 04:48:26;;;;;;;45.88;23.55;;;-1.00;99.90;;;;;;5040763;28;20033;-76
2023/12/02 04:50:52;;;;;;;45.13;21.67;;;-1.10;99.90;;;;;;5058660;28;20445;-75
2023/12/02 04:53:17;;;;;;;49.05;22.60;;;-1.00;99.90;;;;;;5046810;28;20049;-75
2023/12/02 04:55:43;;;;;;;44.55;22.63;;;-1.10;99.90;;;;;;5076710;28;20040;-76
2023/12/02 04:58:09;;;;;;;44.90;23.55;;;-1.00;99.90;;;;;;5077506;28;20128;-76
2023/12/02 05:00:34;;;;;;;45.72;23.00;;;-1.00;99.90;;;;;;5046076;28;20372;-75
2023/12/02 05:03:00;;;;;;;42.85;21.77;;;-1.10;99.90;;;;;;5096795;28;20101;-75
2023/12/02 05:05:26;;;;;;;42.97;22.83;;;-0.40;99.90;;;;;;5060696;28;20036;-76
2023/12/02 05:07:52;;;;;;;41.92;21.52;;;-1.00;99.90;;;;;;5059647;28;20099;-75
2023/12/02 05:10:21;;;;;;;45.75;23.02;;;-1.00;99.90;;;;;;5078817;28;20480;-76
2023/12/02 05:12:49;;;;;;;45.45;22.15;;;-1.00;99.90;;;;;;5078205;28;20041;-76
2023/12/02 05:15:15;;;;;;;40.85;20.92;;;-1.10;99.90;;;;;;5071126;28;20133;-76
2023/12/02 05:17:46;;;;;;;42.65;22.55;;;-1.00;99.90;;;;;;5073491;28;20040;-76
2023/12/02 05:20:13;;;;;;;40.97;21.30;;;-1.10;99.90;;;;;;5078169;28;20040;-76
2023/12/02 05:22:39;;;;;;;40.63;22.48;;;-1.10;99.90;;;;;;5076348;28;20088;-76
2023/12/02 05:25:08;;;;;;;46.20;23.73;;;-1.10;99.90;;;;;;5043542;28;20090;-75
2023/12/02 05:27:37;;;;;;;48.92;23.65;;;-0.60;99.90;;;;;;5076930;28;20045;-77
2023/12/02 05:30:04;;;;;;;45.15;22.05;;;-1.10;99.90;;;;;;5062222;28;20502;-76
2023/12/02 05:32:30;;;;;;;45.42;21.88;;;-1.10;99.90;;;;;;5078871;28;20045;-76
2023/12/02 05:34:56;;;;;;;45.42;24.55;;;-1.10;99.90;;;;;;5046110;28;20482;-76
2023/12/02 05:37:22;;;;;;;45.38;23.92;;;-1.10;99.90;;;;;;5044624;28;20070;-76
2023/12/02 05:39:47;;;;;;;43.85;22.45;;;-1.10;99.90;;;;;;5061555;28;20064;-77
2023/12/02 05:42:13;;;;;;;45.63;22.58;;;-1.10;99.90;;;;;;5038741;28;20059;-77
2023/12/02 05:44:42;;;;;;;43.15;22.67;;;-1.10;99.90;;;;;;5041340;28;20044;-75
2023/12/02 05:47:08;;;;;;;45.45;23.42;;;-1.10;99.90;;;;;;5051245;28;20052;-76
2023/12/02 05:49:33;;;;;;;45.67;21.42;;;-1.10;99.90;;;;;;5043616;28;20044;-76
2023/12/02 05:51:59;;;;;;;46.70;23.88;;;-1.10;99.90;;;;;;5069581;28;20478;-77
2023/12/02 05:54:25;;;;;;;46.00;22.95;;;-1.10;99.90;;;;;;5057638;28;20057;-76
2023/12/02 05:56:54;;;;;;;44.22;22.52;;;-1.10;99.90;;;;;;5072982;28;20059;-76
2023/12/02 05:59:20;;;;;;;44.05;23.42;;;-1.20;99.90;;;;;;5060263;28;20044;-77
2023/12/02 06:01:46;;;;;;;47.40;23.38;;;-1.10;99.90;;;;;;5048166;28;20107;-76
2023/12/02 06:04:12;;;;;;;41.88;21.80;;;-1.20;99.90;;;;;;5060570;28;20498;-76
2023/12/02 06:06:38;;;;;;;43.47;23.25;;;-1.10;99.90;;;;;;5084243;28;20051;-77
2023/12/02 06:09:07;;;;;;;43.00;23.90;;;-0.90;99.90;;;;;;5074322;28;20116;-77
2023/12/02 06:11:32;;;;;;;46.10;23.60;;;-1.10;99.90;;;;;;5079500;28;20556;-75
2023/12/02 06:13:58;;;;;;;45.58;24.02;;;-1.10;99.90;;;;;;5070312;28;20044;-76
2023/12/02 06:16:24;;;;;;;43.83;23.35;;;-1.10;99.90;;;;;;5050989;28;20395;-76
2023/12/02 06:18:50;;;;;;;47.97;23.65;;;-1.10;99.90;;;;;;5042738;28;20462;-76
2023/12/02 06:21:16;;;;;;;45.28;24.13;;;-1.10;99.90;;;;;;5081015;28;20127;-77
2023/12/02 06:23:42;;;;;;;46.05;23.15;;;-1.10;99.90;;;;;;5054881;28;20441;-76
2023/12/02 06:26:08;;;;;;;46.30;24.17;;;-1.20;99.90;;;;;;5069133;28;20505;-75
2023/12/02 06:28:33;;;;;;;45.67;22.33;;;-1.10;99.90;;;;;;5052795;28;20041;-75
2023/12/02 06:30:59;;;;;;;41.85;23.17;;;0.10;99.90;;;;;;5054937;28;20044;-75
2023/12/02 06:33:25;;;;;;;48.80;23.58;;;-1.10;99.90;;;;;;5074242;28;20033;-78
2023/12/02 06:35:50;;;;;;;44.13;22.63;;;-1.00;99.90;;;;;;5067103;28;20045;-76
2023/12/02 06:38:17;;;;;;;44.20;22.63;;;-1.10;99.90;;;;;;5058295;28;20102;-75
2023/12/02 06:40:43;;;;;;;44.08;24.27;;;-1.40;99.90;;;;;;5060332;28;20494;-76
2023/12/02 06:43:12;;;;;;;44.72;24.00;;;-1.10;99.90;;;;;;5073409;28;20707;-75
2023/12/02 06:45:38;;;;;;;48.15;23.45;;;-1.10;99.90;;;;;;5087532;28;20044;-76
2023/12/02 06:48:04;;;;;;;50.55;24.23;;;-1.20;99.90;;;;;;5066487;28;20367;-76
2023/12/02 06:50:29;;;;;;;46.78;24.10;;;-1.20;99.90;;;;;;5042669;28;20048;-75
2023/12/02 06:52:55;;;;;;;45.97;24.38;;;-0.70;99.90;;;;;;5091662;28;20047;-76
2023/12/02 06:55:21;;;;;;;48.03;24.35;;;-1.20;99.90;;;;;;5040545;28;20055;-75
2023/12/02 06:57:48;;;;;;;49.38;24.45;;;-1.20;99.90;;;;;;5039327;28;20151;-75
2023/12/02 07:00:14;;;;;;;41.90;22.50;;;0.70;99.90;;;;;;5060296;28;20049;-75
2023/12/02 07:02:41;;;;;;;47.20;23.83;;;-1.20;99.90;;;;;;5052060;28;20123;-75
2023/12/02 07:05:08;;;;;;;52.22;23.58;;;-1.20;99.90;;;;;;5056507;28;20166;-77
2023/12/02 07:07:34;;;;;;;44.88;23.25;;;-1.10;99.90;;;;;;5047905;28;20067;-75
2023/12/02 07:09:59;;;;;;;47.25;24.17;;;-1.20;99.90;;;;;;5048176;28;20498;-76
2023/12/02 07:12:25;;;;;;;48.30;23.08;;;-1.10;99.90;;;;;;5072948;28;20044;-77
2023/12/02 07:14:50;;;;;;;44.92;24.55;;;-1.20;99.90;;;;;;5036740;28;20042;-76
2023/12/02 07:17:16;;;;;;;46.45;23.95;;;-1.20;99.90;;;;;;5057081;28;20045;-75
2023/12/02 07:19:42;;;;;;;42.63;22.13;;;-1.20;99.90;;;;;;5054908;28;20065;-75
2023/12/02 07:22:07;;;;;;;48.08;24.23;;;-1.20;99.90;;;;;;5076578;28;20048;-76
2023/12/02 07:24:33;;;;;;;47.20;23.55;;;-1.10;99.90;;;;;;5077103;28;20044;-76
2023/12/02 07:26:59;;;;;;;47.75;23.98;;;-1.10;99.90;;;;;;5040223;28;20066;-76
2023/12/02 07:29:24;;;;;;;48.92;22.73;;;-1.10;99.90;;;;;;5054380;28;20041;-76
2023/12/02 07:31:50;;;;;;;48.72;23.85;;;-1.10;99.90;;;;;;5075231;28;20032;-76
2023/12/02 07:34:16;;;;;;;42.03;22.55;;;-1.20;99.90;;;;;;5058315;28;20474;-76
2023/12/02 07:36:41;;;;;;;47.88;23.42;;;-1.10;99.90;;;;;;5064778;28;20048;-75
2023/12/02 07:39:07;;;;;;;48.38;24.38;;;-1.10;99.90;;;;;;5066743;28;20048;-76
2023/12/02 07:41:33;;;;;;;46.70;23.92;;;-1.10;99.90;;;;;;5040514;28;20044;-76
2023/12/02 07:43:59;;;;;;;46.05;25.00;;;-0.90;99.90;;;;;;5039734;28;20099;-76
2023/12/02 07:46:24;;;;;;;46.00;24.08;;;-1.20;99.90;;;;;;5045610;28;20036;-76
2023/12/02 07:48:50;;;;;;;44.42;23.90;;;-1.20;99.90;;;;;;5040690;28;20044;-76
2023/12/02 07:51:16;;;;;;;46.97;23.15;;;-1.10;99.90;;;;;;5071285;28;20044;-75
2023/12/02 07:53:42;;;;;;;47.70;24.05;;;-0.80;99.90;;;;;;5064402;28;20041;-75
2023/12/02 07:56:08;;;;;;;45.72;23.20;;;-1.10;99.90;;;;;;5045198;28;20037;-75
2023/12/02 07:58:34;;;;;;;45.95;24.52;;;-1.10;99.90;;;;;;5080300;28;20048;-75
2023/12/02 08:01:00;;;;;;;49.65;24.38;;;-1.10;99.90;;;;;;5059529;28;20044;-75
2023/12/02 08:03:27;;;;;;;45.65;23.67;;;-1.10;99.90;;;;;;5061368;28;20052;-75
2023/12/02 08:05:53;;;;;;;45.10;23.00;;;-0.90;99.90;;;;;;5075548;28;20041;-75
2023/12/02 08:08:19;;;;;;;46.22;23.83;;;-1.10;99.90;;;;;;5092723;28;20078;-76
2023/12/02 08:10:47;;;;;;;47.28;23.30;;;-1.00;99.90;;;;;;5076671;28;20037;-76
2023/12/02 08:13:12;;;;;;;50.38;24.30;;;-0.90;99.90;;;;;;5072041;28;20041;-76
2023/12/02 08:15:39;;;;;;;48.22;24.05;;;-1.00;99.90;;;;;;5053281;28;20048;-76
2023/12/02 08:18:05;;;;;;;50.58;24.00;;;-1.00;99.90;;;;;;5054245;28;20071;-76
2023/12/02 08:20:30;;;;;;;44.85;23.85;;;-0.90;99.90;;;;;;5073196;28;20479;-76
2023/12/02 08:22:57;;;;;;;50.13;25.73;;;-0.90;99.90;;;;;;5055991;28;20076;-76
2023/12/02 08:25:23;;;;;;;49.13;25.33;;;-0.70;99.90;;;;;;5056712;28;20433;-76
2023/12/02 08:27:49;;;;;;;53.08;24.48;;;-0.80;99.90;;;;;;5071024;28;20036;-77
2023/12/02 08:30:14;;;;;;;47.47;23.65;;;-0.90;99.90;;;;;;5071360;28;20097;-75
2023/12/02 08:32:40;;;;;;;49.17;24.42;;;-0.80;99.90;;;;;;5052089;28;20049;-75
2023/12/02 08:35:09;;;;;;;47.90;23.52;;;-0.80;99.90;;;;;;5071529;28;20049;-76
2023/12/02 08:37:35;;;;;;;45.45;23.85;;;-0.70;99.90;;;;;;5036893;28;20079;-75
2023/12/02 08:40:02;;;;;;;45.65;23.10;;;-0.70;99.90;;;;;;5074526;28;20036;-75
2023/12/02 08:42:27;;;;;;;47.88;23.45;;;-0.70;99.90;;;;;;5071391;28;20051;-76
2023/12/02 08:44:53;;;;;;;45.10;24.15;;;-0.60;99.90;;;;;;5048140;28;20036;-76
2023/12/02 08:47:18;;;;;;;52.70;25.00;;;-0.60;99.90;;;;;;5066547;28;20041;-76
2023/12/02 08:49:44;;;;;;;47.50;23.92;;;-0.50;99.90;;;;;;5047692;28;20047;-75
2023/12/02 08:52:10;;;;;;;52.08;26.17;;;-0.50;99.90;;;;;;5085418;28;20123;-74
2023/12/02 08:54:35;;;;;;;49.08;24.73;;;-0.40;99.90;;;;;;5073282;28;20040;-75
2023/12/02 08:57:01;;;;;;;48.03;24.17;;;-0.40;99.90;;;;;;5071791;28;20049;-75
2023/12/02 08:59:27;;;;;;;48.38;24.20;;;-0.40;99.90;;;;;;5054614;28;20479;-74
2023/12/02 09:01:52;;;;;;;51.95;26.40;;;-0.30;99.90;;;;;;5059092;28;20104;-76
2023/12/02 09:04:18;;;;;;;44.95;23.20;;;-0.30;99.90;;;;;;5061780;28;20041;-76
2023/12/02 09:06:44;;;;;;;41.78;21.58;;;-0.20;99.90;;;;;;5040075;28;20479;-76
2023/12/02 09:09:10;;;;;;;46.28;24.33;;;-0.20;99.90;;;;;;5075801;28;20068;-77
2023/12/02 09:11:36;;;;;;;44.53;24.00;;;0.40;99.90;;;;;;5067137;28;20072;-75
2023/12/02 09:14:01;;;;;;;43.35;23.13;;;-0.10;99.90;;;;;;5065111;28;20047;-76
2023/12/02 09:16:29;;;;;;;46.88;24.52;;;0.40;99.90;;;;;;5050472;28;20041;-76
2023/12/02 09:18:55;;;;;;;41.08;20.83;;;-0.10;99.90;;;;;;5081456;28;20033;-77
2023/12/02 09:21:21;;;;;;;44.83;24.40;;;1.10;99.90;;;;;;5074838;28;20037;-76
2023/12/02 09:23:51;;;;;;;41.47;23.00;;;0.00;99.90;;;;;;5055883;28;20098;-76
2023/12/02 09:26:28;;;;;;;46.97;25.00;;;1.00;99.90;;;;;;5038811;28;20060;-76
2023/12/02 09:28:57;;;;;;;45.08;23.23;;;-0.10;99.90;;;;;;5052925;28;20088;-77
2023/12/02 09:31:26;;;;;;;67.35;25.23;;;0.00;99.90;;;;;;5030679;28;20105;-77
2023/12/02 09:33:57;;;;;;;;;;;0.00;99.90;;;;;;5039081;28;20121;-76
2023/12/02 09:36:36;;;;;;;42.08;22.17;;;0.00;99.90;;;;;;5069302;28;19928;-76
2023/12/02 09:39:17;;;;;;;39.00;22.08;;;0.10;99.90;;;;;;5057347;28;20083;-76
2023/12/02 09:41:50;;;;;;;40.55;22.17;;;0.10;99.90;;;;;;5075879;28;20128;-77
2023/12/02 09:44:46;;;;;;;40.22;21.05;;;0.10;99.90;;;;;;5076429;28;20037;-76
2023/12/02 09:47:23;;;;;;;43.97;23.52;;;0.70;99.90;;;;;;5059676;28;20115;-77
2023/12/02 09:50:09;;;;;;;44.97;22.75;;;0.20;99.90;;;;;;5042578;28;20075;-77
2023/12/02 09:52:56;;;;;;;41.35;21.85;;;0.20;99.90;;;;;;5072138;28;20061;-76
2023/12/02 09:55:47;;;;;;;37.60;20.05;;;0.30;99.90;;;;;;5062061;28;20071;-77
2023/12/02 09:58:24;;;;;;;38.65;21.55;;;0.40;99.90;;;;;;5064670;28;20124;-75
2023/12/02 10:01:08;;;;;;;41.97;22.58;;;0.40;99.90;;;;;;5040124;28;20040;-76
2023/12/02 10:03:37;;;;;;;36.47;19.42;;;0.40;99.90;;;;;;5065168;28;20109;-77
2023/12/02 10:06:21;;;;;;;37.47;20.70;;;0.50;99.90;;;;;;5045814;28;20136;-76
2023/12/02 10:09:10;;;;;;;32.17;19.60;;;0.50;99.90;;;;;;5063867;28;20533;-76
2023/12/02 10:11:47;;;;;;;34.60;20.23;;;0.60;99.90;;;;;;5049605;28;20040;-77
2023/12/02 10:14:19;;;;;;;32.55;19.48;;;0.70;99.90;;;;;;5065086;28;20048;-77
2023/12/02 10:16:47;;;;;;;39.35;19.65;;;0.80;99.90;;;;;;5043743;28;20044;-76
2023/12/02 10:19:42;;;;;;;29.55;17.25;;;0.90;99.90;;;;;;5063341;28;20032;-76
2023/12/02 10:22:10;;;;;;;32.83;18.45;;;0.90;99.90;;;;;;5044654;28;20052;-77
2023/12/02 10:24:42;;;;;;;;;;;1.00;99.90;;;;;;5035991;28;20049;-77
2023/12/02 10:27:14;;;;;;;28.15;17.38;;;1.10;99.90;;;;;;5029176;28;19978;-78
2023/12/02 10:30:09;;;;;;;32.72;19.20;;;1.20;99.90;;;;;;5050181;28;20033;-77
2023/12/02 10:33:01;;;;;;;31.42;18.63;;;1.20;99.90;;;;;;5088327;28;20041;-78
2023/12/02 10:35:41;;;;;;;31.90;18.35;;;1.30;99.90;;;;;;5078002;28;20044;-77
2023/12/02 10:38:34;;;;;;;30.48;17.98;;;1.40;99.90;;;;;;5060638;28;20070;-78
2023/12/02 10:41:22;;;;;;;32.40;18.80;;;1.50;99.90;;;;;;5062077;28;20124;-78
2023/12/02 10:43:57;;;;;;;25.80;17.05;;;1.50;99.90;;;;;;5048483;28;20044;-79
2023/12/02 10:46:24;;;;;;;28.58;16.90;;;2.40;99.90;;;;;;5064998;28;20037;-78
2023/12/02 10:48:53;;;;;;;31.48;18.38;;;1.70;99.90;;;;;;5077019;28;20091;-78
2023/12/02 10:51:21;;;;;;;27.58;16.63;;;1.70;99.90;;;;;;5060289;28;20054;-78
2023/12/02 10:53:51;;;;;;;27.48;17.58;;;1.80;99.90;;;;;;5037343;28;20041;-79
2023/12/02 10:56:23;;;;;;;26.50;16.25;;;1.80;99.90;;;;;;5078359;28;20131;-79
2023/12/02 10:58:51;;;;;;;25.58;16.15;;;2.40;99.90;;;;;;5063159;28;20368;-78
2023/12/02 11:01:43;;;;;;;27.25;15.43;;;1.90;99.90;;;;;;5058900;28;20141;-78
2023/12/02 11:04:25;;;;;;;26.50;15.68;;;1.80;99.90;;;;;;5042688;28;20048;-78
2023/12/02 11:06:57;;;;;;;25.27;16.13;;;1.80;99.90;;;;;;5042144;28;20075;-78
2023/12/02 11:09:41;;;;;;;21.92;14.30;;;1.90;99.90;;;;;;5069675;28;20096;-79
2023/12/02 11:12:32;;;;;;;22.92;14.30;;;1.90;99.90;;;;;;5077547;28;20045;-78
2023/12/02 11:15:05;;;;;;;22.58;13.80;;;1.90;99.90;;;;;;5051801;28;20148;-79
2023/12/02 11:17:37;;;;;;;19.13;12.18;;;2.00;99.90;;;;;;5068584;28;20045;-79
2023/12/02 11:20:25;;;;;;;27.40;13.50;;;2.00;99.90;;;;;;5065767;28;20041;-78
2023/12/02 11:23:12;;;;;;;20.10;12.18;;;3.50;99.90;;;;;;5035471;28;20049;-79
2023/12/02 11:25:52;;;;;;;19.63;10.80;;;2.10;99.90;;;;;;5052250;28;20059;-78
2023/12/02 11:28:39;;;;;;;15.50;10.18;;;2.20;99.90;;;;;;5043908;28;20045;-79
2023/12/02 11:31:06;;;;;;;17.15;11.07;;;2.30;99.90;;;;;;5065643;28;20048;-78
2023/12/02 11:33:53;;;;;;;14.32;10.27;;;2.40;99.90;;;;;;5080002;28;20097;-81
2023/12/02 11:37:01;;;;;;;17.02;10.07;;;2.40;99.90;;;;;;5064493;28;20131;-78
2023/12/02 11:39:36;;;;;;;17.85;9.77;;;2.50;99.90;;;;;;5087331;28;20108;-78
2023/12/02 11:42:17;;;;;;;14.38;10.15;;;2.50;99.90;;;;;;5072014;28;20045;-79
2023/12/02 11:45:11;;;;;;;12.43;8.93;;;4.00;99.90;;;;;;5061351;28;20136;-79
2023/12/02 11:48:11;;;;;;;11.43;9.07;;;2.60;99.90;;;;;;5053964;28;20047;-81
2023/12/02 11:51:05;;;;;;;15.00;8.52;;;2.60;99.90;;;;;;5039811;28;20047;-79
2023/12/02 11:53:46;;;;;;;12.40;8.18;;;2.60;99.90;;;;;;5062736;28;20040;-78
2023/12/02 11:56:16;;;;;;;12.07;9.20;;;2.60;99.90;;;;;;5090098;28;20032;-79
2023/12/02 11:58:51;;;;;;;17.35;9.02;;;2.60;99.90;;;;;;5064911;28;20180;-79
2023/12/02 12:01:34;;;;;;;13.10;8.50;;;2.60;99.90;;;;;;5075089;28;20071;-78
2023/12/02 12:04:25;;;;;;;12.27;8.07;;;2.60;99.90;;;;;;5039237;28;20045;-79
2023/12/02 12:07:17;;;;;;;15.73;7.72;;;2.60;99.90;;;;;;5065731;28;20503;-79
2023/12/02 12:10:10;;;;;;;16.13;8.20;;;2.50;99.90;;;;;;5067310;28;20063;-78
2023/12/02 12:12:40;;;;;;;12.77;8.10;;;2.50;99.90;;;;;;5079993;28;20100;-78
2023/12/02 12:15:08;;;;;;;13.05;8.00;;;2.50;99.90;;;;;;5088546;28;20060;-77
2023/12/02 12:17:34;;;;;;;11.60;7.57;;;2.60;99.90;;;;;;5087689;28;20044;-77
2023/12/02 12:20:16;;;;;;;16.42;10.05;;;2.60;99.90;;;;;;5060417;28;20041;-80
2023/12/02 12:22:43;;;;;;;14.07;10.02;;;2.50;99.90;;;;;;5076873;28;20522;-78
2023/12/02 12:25:09;;;;;;;18.67;10.75;;;2.50;99.90;;;;;;5045273;28;20055;-79
2023/12/02 12:27:35;;;;;;;16.70;9.35;;;2.50;99.90;;;;;;5080564;28;20036;-78
2023/12/02 12:30:01;;;;;;;15.32;9.25;;;2.80;99.90;;;;;;5087088;28;20048;-80
2023/12/02 12:32:27;;;;;;;16.30;9.93;;;2.50;99.90;;;;;;5057721;28;20045;-79
2023/12/02 12:34:56;;;;;;;17.02;10.73;;;3.10;99.90;;;;;;5085516;28;20071;-79
2023/12/02 12:37:22;;;;;;;17.05;11.00;;;2.50;99.90;;;;;;5067779;28;20044;-78
2023/12/02 12:39:49;;;;;;;15.73;10.43;;;2.50;99.90;;;;;;5071610;28;20040;-78